createdAt,value
2022-09-29T00:00:50.380Z,19.20
2022-09-29T00:03:52.708Z,19.20
2022-09-29T00:06:54.804Z,19.10
2022-09-29T00:09:56.960Z,19.10
2022-09-29T00:12:59.160Z,19.10
2022-09-29T00:16:03.305Z,19.10
2022-09-29T00:19:05.610Z,19.10
2022-09-29T00:22:07.985Z,19.10
2022-09-29T00:25:10.399Z,19.10
2022-09-29T00:28:12.471Z,19.10
2022-09-29T00:31:15.245Z,19.10
2022-09-29T00:34:17.635Z,19.10
2022-09-29T00:37:19.825Z,19.10
2022-09-29T00:40:21.974Z,19.10
2022-09-29T00:43:45.674Z,19.10
2022-09-29T00:46:56.545Z,19.10
2022-09-29T00:50:11.727Z,19.10
2022-09-29T00:53:21.234Z,19.10
2022-09-29T00:56:24.487Z,19.10
2022-09-29T00:59:42.546Z,19.10
2022-09-29T01:02:50.138Z,19.10
2022-09-29T01:05:59.889Z,19.10
2022-09-29T01:09:07.797Z,19.10
2022-09-29T01:12:10.440Z,19.10
2022-09-29T01:15:14.994Z,19.10
2022-09-29T01:18:17.104Z,19.00
2022-09-29T01:21:37.096Z,19.00
2022-09-29T01:24:57.615Z,19.00
2022-09-29T01:28:24.085Z,19.00
2022-09-29T01:31:47.978Z,19.00
2022-09-29T01:35:17.722Z,19.00
2022-09-29T01:38:33.627Z,19.00
2022-09-29T01:41:42.697Z,19.00
2022-09-29T01:45:14.275Z,19.00
2022-09-29T01:48:22.990Z,19.00
2022-09-29T01:51:32.496Z,19.00
2022-09-29T01:54:54.363Z,19.00
2022-09-29T01:58:09.567Z,19.00
2022-09-29T02:01:15.107Z,19.00
2022-09-29T02:04:24.188Z,19.00
2022-09-29T02:07:36.637Z,19.00
2022-09-29T02:10:47.866Z,19.00
2022-09-29T02:14:05.547Z,19.00
2022-09-29T02:17:19.508Z,18.90
2022-09-29T02:20:22.641Z,19.00
2022-09-29T02:23:25.058Z,19.00
2022-09-29T02:26:31.546Z,19.00
2022-09-29T02:29:35.900Z,19.00
2022-09-29T02:32:38.171Z,18.90
2022-09-29T02:35:54.049Z,18.90
2022-09-29T02:38:59.607Z,18.90
2022-09-29T02:42:20.725Z,18.90
2022-09-29T02:53:04.515Z,18.90
2022-09-29T02:56:29.785Z,18.90
2022-09-29T02:59:40.680Z,18.90
2022-09-29T03:02:44.070Z,18.90
2022-09-29T03:05:46.668Z,18.90
2022-09-29T03:08:49.042Z,18.90
2022-09-29T03:11:51.130Z,18.90
2022-09-29T03:14:53.257Z,18.90
2022-09-29T03:17:57.299Z,18.90
2022-09-29T03:20:59.441Z,18.90
2022-09-29T03:24:01.932Z,18.90
2022-09-29T03:27:04.585Z,18.90
2022-09-29T03:30:07.878Z,18.90
2022-09-29T03:33:10.023Z,18.90
2022-09-29T03:36:13.215Z,18.90
2022-09-29T03:39:16.443Z,18.90
2022-09-29T03:42:19.616Z,18.90
2022-09-29T03:45:21.894Z,18.90
2022-09-29T03:48:25.074Z,18.80
2022-09-29T03:51:27.255Z,18.80
2022-09-29T03:54:29.509Z,18.80
2022-09-29T03:57:31.776Z,18.80
2022-09-29T04:07:58.706Z,18.80
2022-09-29T04:11:14.163Z,18.90
2022-09-29T04:14:16.308Z,18.80
2022-09-29T04:17:18.511Z,18.80
2022-09-29T04:20:20.907Z,18.80
2022-09-29T04:26:51.130Z,18.80
2022-09-29T04:33:15.281Z,18.80
2022-09-29T04:36:17.466Z,18.80
2022-09-29T04:39:19.955Z,18.80
2022-09-29T04:42:22.410Z,18.80
2022-09-29T04:45:24.627Z,18.80
2022-09-29T04:48:26.781Z,18.80
2022-09-29T04:51:28.970Z,18.80
2022-09-29T04:54:37.883Z,18.80
2022-09-29T05:01:17.891Z,18.80
2022-09-29T05:04:20.753Z,18.80
2022-09-29T05:07:22.876Z,18.70
2022-09-29T05:10:25.884Z,18.70
2022-09-29T05:13:28.018Z,18.80
2022-09-29T05:16:30.401Z,18.70
2022-09-29T05:19:32.757Z,18.70
2022-09-29T05:22:34.844Z,18.70
2022-09-29T05:25:38.125Z,18.70
2022-09-29T05:28:44.568Z,18.70
2022-09-29T05:31:46.691Z,18.70
2022-09-29T05:34:50.538Z,18.70
2022-09-29T05:37:52.724Z,18.70
2022-09-29T05:40:54.968Z,18.70
2022-09-29T05:43:57.564Z,18.70
2022-09-29T05:47:00.063Z,18.70
2022-09-29T05:50:03.764Z,18.70
2022-09-29T05:53:05.930Z,18.70
2022-09-29T05:56:21.635Z,18.70
2022-09-29T05:59:24.067Z,18.70
2022-09-29T06:02:26.385Z,18.70
2022-09-29T06:05:29.258Z,18.70
2022-09-29T06:08:31.795Z,18.70
2022-09-29T06:11:34.252Z,18.70
2022-09-29T06:14:36.431Z,18.70
2022-09-29T06:17:39.360Z,18.70
2022-09-29T06:20:41.495Z,18.70
2022-09-29T06:23:43.661Z,18.70
2022-09-29T06:26:45.964Z,18.70
2022-09-29T06:29:48.206Z,18.70
2022-09-29T06:32:50.439Z,18.70
2022-09-29T06:36:11.016Z,18.70
2022-09-29T06:39:15.136Z,18.70
2022-09-29T06:42:17.399Z,18.70
2022-09-29T06:45:22.214Z,18.60
2022-09-29T06:48:24.636Z,18.70
2022-09-29T06:51:39.048Z,18.60
2022-09-29T06:54:45.442Z,18.70
2022-09-29T06:57:47.543Z,18.70
2022-09-29T07:00:50.833Z,18.70
2022-09-29T07:03:53.268Z,18.60
2022-09-29T07:06:55.344Z,18.60
2022-09-29T07:09:57.436Z,18.60
2022-09-29T07:12:59.655Z,18.60
2022-09-29T07:16:12.585Z,18.60
2022-09-29T07:19:16.327Z,18.60
2022-09-29T07:22:18.391Z,18.70
2022-09-29T07:25:47.042Z,18.60
2022-09-29T07:28:44.221Z,18.60
2022-09-29T07:31:52.363Z,18.60
2022-09-29T07:34:55.044Z,18.60
2022-09-29T07:37:57.505Z,18.60
2022-09-29T07:41:04.375Z,18.60
2022-09-29T07:44:06.988Z,18.60
2022-09-29T07:47:09.169Z,18.60
2022-09-29T07:50:12.396Z,18.60
2022-09-29T07:53:14.967Z,18.60
2022-09-29T07:56:22.582Z,18.60
2022-09-29T07:59:24.705Z,18.60
2022-09-29T08:02:26.953Z,18.60
2022-09-29T08:05:30.450Z,18.60
2022-09-29T08:08:32.611Z,18.60
2022-09-29T08:11:38.723Z,18.70
2022-09-29T08:14:44.217Z,18.70
2022-09-29T08:17:46.603Z,18.60
2022-09-29T08:20:48.702Z,18.60
2022-09-29T08:23:51.225Z,18.60
2022-09-29T08:26:53.320Z,18.70
2022-09-29T08:29:58.604Z,18.70
2022-09-29T08:33:00.713Z,18.70
2022-09-29T08:36:05.964Z,18.60
2022-09-29T08:43:03.762Z,18.60
2022-09-29T08:46:33.109Z,18.60
2022-09-29T08:49:45.784Z,18.60
2022-09-29T08:52:54.435Z,18.60
2022-09-29T08:56:15.367Z,18.60
2022-09-29T08:59:17.557Z,18.60
2022-09-29T09:02:28.376Z,18.70
2022-09-29T09:05:42.683Z,18.60
2022-09-29T09:09:25.768Z,18.60
2022-09-29T09:12:59.703Z,18.60
2022-09-29T09:16:06.284Z,18.60
2022-09-29T09:19:42.613Z,18.60
2022-09-29T09:22:53.601Z,18.60
2022-09-29T09:25:59.325Z,18.60
2022-09-29T09:29:07.523Z,18.60
2022-09-29T09:32:14.784Z,18.60
2022-09-29T09:35:32.629Z,18.60
2022-09-29T09:38:50.267Z,18.70
2022-09-29T09:41:56.698Z,18.60
2022-09-29T09:45:22.056Z,18.60
2022-09-29T09:48:41.386Z,18.60
2022-09-29T09:52:05.060Z,18.60
2022-09-29T09:55:14.907Z,18.70
2022-09-29T09:58:48.386Z,18.60
2022-09-29T10:01:51.283Z,18.70
2022-09-29T10:04:54.581Z,18.70
2022-09-29T10:07:57.058Z,18.70
2022-09-29T10:11:01.173Z,18.70
2022-09-29T10:14:23.688Z,18.60
2022-09-29T10:17:41.491Z,18.70
2022-09-29T10:20:46.015Z,18.70
2022-09-29T10:23:54.812Z,18.70
2022-09-29T10:27:01.656Z,18.70
2022-09-29T10:30:05.885Z,18.70
2022-09-29T10:33:17.231Z,18.70
2022-09-29T10:36:21.914Z,18.70
2022-09-29T10:39:45.938Z,18.70
2022-09-29T10:42:49.567Z,18.70
2022-09-29T10:45:54.810Z,18.70
2022-09-29T10:49:13.991Z,18.70
2022-09-29T10:52:28.095Z,18.70
2022-09-29T10:55:47.557Z,18.70
2022-09-29T10:59:04.396Z,18.70
2022-09-29T11:02:37.458Z,18.70
2022-09-29T11:05:50.515Z,18.70
2022-09-29T11:09:28.597Z,18.70
2022-09-29T11:12:34.939Z,18.70
2022-09-29T11:15:41.872Z,18.70
2022-09-29T11:18:49.297Z,18.70
2022-09-29T11:21:54.203Z,18.70
2022-09-29T11:25:45.309Z,18.70
2022-09-29T11:29:06.240Z,18.70
2022-09-29T11:32:33.046Z,18.70
2022-09-29T11:35:54.303Z,18.70
2022-09-29T11:39:06.530Z,18.70
2022-09-29T11:42:34.956Z,18.70
2022-09-29T11:45:57.745Z,18.70
2022-09-29T11:49:10.287Z,18.70
2022-09-29T11:52:20.620Z,18.80
2022-09-29T11:55:29.433Z,18.70
2022-09-29T11:59:22.610Z,18.70
2022-09-29T12:02:43.119Z,18.80
2022-09-29T12:06:16.396Z,18.80
2022-09-29T12:09:24.925Z,18.80
2022-09-29T12:12:46.161Z,18.80
2022-09-29T12:15:59.255Z,18.80
2022-09-29T12:19:18.081Z,18.80
2022-09-29T12:22:20.684Z,18.80
2022-09-29T12:25:29.239Z,18.80
2022-09-29T12:28:39.694Z,18.80
2022-09-29T12:31:47.425Z,18.80
2022-09-29T12:34:55.574Z,18.80
2022-09-29T12:38:40.109Z,18.80
2022-09-29T12:41:49.098Z,18.80
2022-09-29T12:45:10.672Z,18.80
2022-09-29T12:48:19.391Z,18.80
2022-09-29T12:51:46.016Z,18.80
2022-09-29T12:54:57.666Z,18.80
2022-09-29T12:58:02.588Z,18.80
2022-09-29T13:01:28.692Z,18.80
2022-09-29T13:05:12.763Z,18.90
2022-09-29T13:08:40.169Z,18.80
2022-09-29T13:12:04.876Z,18.90
2022-09-29T13:15:10.275Z,18.90
2022-09-29T13:18:59.893Z,18.90
2022-09-29T13:22:29.822Z,18.90
2022-09-29T13:26:13.506Z,18.90
2022-09-29T13:29:21.762Z,18.90
2022-09-29T13:32:24.271Z,18.90
2022-09-29T13:35:27.628Z,18.90
2022-09-29T13:38:34.605Z,18.90
2022-09-29T13:41:41.836Z,18.90
2022-09-29T13:45:00.282Z,18.90
2022-09-29T13:48:24.977Z,18.90
2022-09-29T13:51:41.715Z,18.90
2022-09-29T13:54:44.261Z,19.00
2022-09-29T13:57:53.152Z,18.90
2022-09-29T14:00:59.142Z,19.00
2022-09-29T14:04:37.342Z,19.00
2022-09-29T14:07:45.805Z,19.00
2022-09-29T14:11:14.443Z,19.00
2022-09-29T14:14:25.930Z,19.00
2022-09-29T14:17:31.448Z,19.00
2022-09-29T14:20:35.147Z,19.00
2022-09-29T14:23:51.986Z,19.00
2022-09-29T14:27:17.584Z,19.00
2022-09-29T14:30:36.149Z,19.00
2022-09-29T14:33:43.269Z,19.00
2022-09-29T14:36:48.205Z,19.00
2022-09-29T14:40:10.209Z,19.00
2022-09-29T14:43:14.272Z,19.00
2022-09-29T14:47:05.964Z,19.00
2022-09-29T14:50:57.843Z,19.00
2022-09-29T14:54:29.300Z,19.00
2022-09-29T14:57:46.887Z,19.00
2022-09-29T15:00:51.807Z,19.10
2022-09-29T15:03:57.074Z,19.10
2022-09-29T15:07:05.094Z,19.10
2022-09-29T15:10:25.179Z,19.10
2022-09-29T15:13:30.361Z,19.10
2022-09-29T15:16:45.158Z,19.10
2022-09-29T15:19:55.447Z,19.10
2022-09-29T15:23:01.176Z,19.10
2022-09-29T15:26:03.400Z,19.10
2022-09-29T15:29:07.731Z,19.10
2022-09-29T15:32:24.199Z,19.10
2022-09-29T15:35:26.425Z,19.10
2022-09-29T15:38:36.512Z,19.10
2022-09-29T15:41:40.469Z,19.20
2022-09-29T15:45:03.419Z,19.20
2022-09-29T15:48:08.323Z,19.10
2022-09-29T15:51:18.868Z,19.20
2022-09-29T15:54:22.054Z,19.20
2022-09-29T15:57:44.037Z,19.20
2022-09-29T16:00:46.554Z,19.20
2022-09-29T16:03:51.991Z,19.20
2022-09-29T16:06:54.101Z,19.20
2022-09-29T16:10:04.734Z,19.20
2022-09-29T16:13:15.720Z,19.20
2022-09-29T16:16:24.778Z,19.20
2022-09-29T16:19:30.697Z,19.20
2022-09-29T16:22:35.919Z,19.20
2022-09-29T16:25:38.116Z,19.20
2022-09-29T16:29:02.520Z,19.30
2022-09-29T16:32:32.831Z,19.30
2022-09-29T16:35:53.118Z,19.30
2022-09-29T16:38:55.746Z,19.30
2022-09-29T16:41:59.960Z,19.30
2022-09-29T16:45:02.233Z,19.30
2022-09-29T16:48:09.205Z,19.30
2022-09-29T16:51:38.245Z,19.30
2022-09-29T16:54:44.190Z,19.30
2022-09-29T16:58:05.153Z,19.30
2022-09-29T17:01:11.245Z,19.30
2022-09-29T17:04:13.587Z,19.40
2022-09-29T17:07:18.244Z,19.30
2022-09-29T17:10:21.849Z,19.40
2022-09-29T17:13:24.448Z,19.40
2022-09-29T17:16:29.267Z,19.40
2022-09-29T17:19:31.420Z,19.40
2022-09-29T17:22:37.182Z,19.30
2022-09-29T17:25:42.988Z,19.40
2022-09-29T17:28:45.266Z,19.40
2022-09-29T17:31:47.356Z,19.40
2022-09-29T17:34:49.450Z,19.40
2022-09-29T17:37:51.803Z,19.40
2022-09-29T17:41:02.588Z,19.40
2022-09-29T17:44:10.427Z,19.40
2022-09-29T17:47:27.910Z,19.40
2022-09-29T17:50:41.137Z,19.40
2022-09-29T17:53:43.286Z,19.40
2022-09-29T17:56:45.400Z,19.40
2022-09-29T17:59:47.688Z,19.40
2022-09-29T18:02:51.301Z,19.40
2022-09-29T18:05:59.913Z,19.40
2022-09-29T18:09:02.177Z,19.40
2022-09-29T18:12:04.424Z,19.40
2022-09-29T18:15:07.297Z,19.40
2022-09-29T18:18:13.211Z,19.40
2022-09-29T18:21:18.844Z,19.40
2022-09-29T18:24:21.102Z,19.40
2022-09-29T18:27:23.231Z,19.40
2022-09-29T18:30:28.009Z,19.40
2022-09-29T18:33:31.084Z,19.40
2022-09-29T18:36:33.333Z,19.40
2022-09-29T18:39:35.492Z,19.40
2022-09-29T18:42:45.158Z,19.40
2022-09-29T18:45:48.401Z,19.40
2022-09-29T18:48:51.004Z,19.40
2022-09-29T18:51:53.392Z,19.40
2022-09-29T18:54:55.536Z,19.40
2022-09-29T18:57:59.140Z,19.40
2022-09-29T19:01:02.716Z,19.40
2022-09-29T19:04:05.458Z,19.40
2022-09-29T19:07:12.324Z,19.40
2022-09-29T19:10:16.761Z,19.40
2022-09-29T19:13:19.511Z,19.40
2022-09-29T19:16:23.588Z,19.40
2022-09-29T19:19:25.866Z,19.40
2022-09-29T19:22:30.539Z,19.40
2022-09-29T19:25:37.813Z,19.40
2022-09-29T19:28:40.368Z,19.50
2022-09-29T19:31:42.494Z,19.50
2022-09-29T19:34:44.706Z,19.50
2022-09-29T19:37:47.770Z,19.50
2022-09-29T19:40:51.768Z,19.50
2022-09-29T19:43:53.965Z,19.50
2022-09-29T19:46:56.085Z,19.50
2022-09-29T19:50:18.255Z,19.50
2022-09-29T19:53:20.726Z,19.50
2022-09-29T19:56:22.944Z,19.50
2022-09-29T19:59:32.069Z,19.50
2022-09-29T20:02:34.448Z,19.50
2022-09-29T20:05:37.449Z,19.50
2022-09-29T20:08:39.545Z,19.50
2022-09-29T20:11:42.250Z,19.50
2022-09-29T20:14:44.480Z,19.40
2022-09-29T20:17:46.600Z,19.50
2022-09-29T20:20:51.734Z,19.50
2022-09-29T20:23:53.886Z,19.40
2022-09-29T20:26:57.690Z,19.40
2022-09-29T20:29:59.932Z,19.50
2022-09-29T20:33:02.036Z,19.50
2022-09-29T20:36:05.611Z,19.40
2022-09-29T20:39:08.533Z,19.40
2022-09-29T20:42:11.964Z,19.40
2022-09-29T20:45:16.388Z,19.40
2022-09-29T20:48:18.501Z,19.40
2022-09-29T20:51:21.047Z,19.40
2022-09-29T20:54:24.143Z,19.40
2022-09-29T20:57:26.395Z,19.40
2022-09-29T21:00:28.629Z,19.40
2022-09-29T21:03:30.835Z,19.40
2022-09-29T21:06:35.841Z,19.40
2022-09-29T21:09:38.038Z,19.40
2022-09-29T21:12:40.320Z,19.40
2022-09-29T21:15:42.529Z,19.40
2022-09-29T21:18:45.245Z,19.40
2022-09-29T21:21:47.426Z,19.40
2022-09-29T21:24:49.605Z,19.40
2022-09-29T21:27:51.728Z,19.40
2022-09-29T21:31:08.063Z,19.40
2022-09-29T21:34:11.438Z,19.40
2022-09-29T21:37:13.594Z,19.40
2022-09-29T21:40:15.915Z,19.40
2022-09-29T21:43:18.050Z,19.40
2022-09-29T21:46:22.426Z,19.40
2022-09-29T21:49:24.629Z,19.40
2022-09-29T21:52:26.766Z,19.40
2022-09-29T21:55:28.881Z,19.40
2022-09-29T21:58:31.591Z,19.40
2022-09-29T22:01:34.132Z,19.40
2022-09-29T22:04:36.303Z,19.40
2022-09-29T22:07:38.597Z,19.40
2022-09-29T22:10:40.688Z,19.40
2022-09-29T22:13:42.895Z,19.40
2022-09-29T22:16:45.212Z,19.30
2022-09-29T22:19:47.417Z,19.30
2022-09-29T22:22:49.722Z,19.30
2022-09-29T22:25:51.901Z,19.30
2022-09-29T22:28:56.427Z,19.30
2022-09-29T22:31:58.592Z,19.30
2022-09-29T22:35:00.795Z,19.30
2022-09-29T22:38:05.043Z,19.30
2022-09-29T22:41:12.310Z,19.30
2022-09-29T22:44:16.032Z,19.30
2022-09-29T22:47:18.442Z,19.30
2022-09-29T22:50:23.691Z,19.30
2022-09-29T22:53:26.013Z,19.30
2022-09-29T22:56:29.151Z,19.30
2022-09-29T22:59:31.464Z,19.30
2022-09-29T23:02:42.348Z,19.30
2022-09-29T23:05:44.838Z,19.30
2022-09-29T23:08:47.160Z,19.30
2022-09-29T23:11:49.411Z,19.30
2022-09-29T23:14:52.343Z,19.30
2022-09-29T23:17:54.425Z,19.30
2022-09-29T23:21:04.855Z,19.30
2022-09-29T23:24:07.088Z,19.30
2022-09-29T23:27:09.408Z,19.30
2022-09-29T23:30:11.807Z,19.30
2022-09-29T23:33:13.896Z,19.30
2022-09-29T23:36:16.295Z,19.30
2022-09-29T23:39:19.121Z,19.20
2022-09-29T23:42:21.219Z,19.20
2022-09-29T23:45:24.456Z,19.20
2022-09-29T23:48:26.772Z,19.20
2022-09-29T23:51:33.823Z,19.20
2022-09-29T23:54:35.981Z,19.20
2022-09-29T23:57:38.135Z,19.20
